Time;durP1;ratioP1;P1;durP2;ratioP2;P2;SDS_P1;SDS_P2;PMS_P1;PMS_P2;Temp;Humidity;BMP_temperature;BMP_pressure;BME280_temperature;BME280_humidity;BME280_pressure;Samples;Min_cycle;Max_cycle;Signal;HPM_P1;HPM_P2
2023/03/20 00:00:41;;;;;;;;;;;21.40;45.00;;;;;;6154516;28;19923;-52
2023/03/20 00:03:42;;;;;;;;;;;21.60;45.30;;;;;;6157895;28;19942;-52
2023/03/20 00:06:44;;;;;;;;;;;21.30;44.90;;;;;;6157154;28;19923;-52
2023/03/20 00:09:48;;;;;;;;;;;21.10;45.00;;;;;;6156668;29;20012;-53
2023/03/20 00:12:50;;;;;;;;;;;21.40;45.10;;;;;;6151990;29;19930;-50
2023/03/20 00:15:52;;;;;;;;;;;21.00;45.00;;;;;;6151436;29;19926;-49
2023/03/20 00:18:55;;;;;;;;;;;21.10;45.10;;;;;;6152103;29;19922;-52
2023/03/20 00:21:57;;;;;;;;;;;21.60;45.30;;;;;;6151763;29;19923;-52
2023/03/20 00:24:58;;;;;;;;;;;21.30;45.10;;;;;;6153028;29;19934;-52
2023/03/20 00:28:00;;;;;;;;;;;20.90;45.00;;;;;;6152074;29;19922;-51
2023/03/20 00:31:03;;;;;;;;;;;21.20;44.00;;;;;;6154738;29;19926;-50
2023/03/20 00:34:05;;;;;;;;;;;21.70;45.30;;;;;;6155159;29;19907;-52
2023/03/20 00:37:08;;;;;;;;;;;21.30;45.00;;;;;;6155033;29;19907;-49
2023/03/20 00:40:10;;;;;;;;;;;21.10;44.80;;;;;;6153115;29;19923;-52
2023/03/20 00:43:15;;;;;;;;;;;21.10;44.80;;;;;;6153511;29;19938;-52
2023/03/20 00:46:16;;;;;;;;;;;21.50;45.20;;;;;;6154152;29;19938;-52
2023/03/20 00:49:18;;;;;;;;;;;21.10;45.10;;;;;;6153986;29;19929;-49
2023/03/20 00:52:21;;;;;;;;;;;21.00;44.70;;;;;;6153945;29;19934;-49
2023/03/20 00:55:27;;;;;;;;;;;21.10;44.90;;;;;;6156632;28;19914;-49
2023/03/20 00:58:29;;;;;;;;;;;21.00;44.80;;;;;;6155893;29;19930;-51
2023/03/20 01:01:31;;;;;;;;;;;21.50;45.20;;;;;;6153330;29;19994;-51
2023/03/20 01:04:35;;;;;;;;;;;21.70;45.20;;;;;;6157915;29;19997;-52
2023/03/20 01:07:40;;;;;;;;;;;21.40;44.90;;;;;;6158251;29;19938;-52
2023/03/20 01:10:42;;;;;;;;;;;21.10;45.00;;;;;;6159203;28;19923;-49
2023/03/20 01:13:43;;;;;;;;;;;21.50;45.00;;;;;;6160934;28;19917;-51
2023/03/20 01:16:44;;;;;;;;;;;21.00;44.90;;;;;;6161638;28;19910;-52
2023/03/20 01:19:46;;;;;;;;;;;21.10;45.00;;;;;;6160046;28;19923;-53
2023/03/20 01:22:48;;;;;;;;;;;21.30;45.10;;;;;;6158689;28;19923;-52
2023/03/20 01:25:49;;;;;;;;;;;21.10;45.00;;;;;;6160550;28;19923;-49
2023/03/20 01:28:51;;;;;;;;;;;21.00;44.90;;;;;;6161288;28;19906;-50
2023/03/20 01:31:54;;;;;;;;;;;21.10;44.90;;;;;;6161274;28;19930;-52
2023/03/20 01:34:58;;;;;;;;;;;21.60;45.10;;;;;;6161139;28;19954;-50
2023/03/20 01:38:00;;;;;;;;;;;20.90;44.80;;;;;;6161150;28;19987;-47
2023/03/20 01:41:03;;;;;;;;;;;20.90;44.70;;;;;;6160502;28;19929;-49
2023/03/20 01:44:16;;;;;;;;;;;21.40;44.90;;;;;;6160063;29;19923;-50
2023/03/20 01:47:19;;;;;;;;;;;20.90;44.60;;;;;;6158214;29;19907;-51
2023/03/20 01:50:25;;;;;;;;;;;21.10;44.80;;;;;;6157299;29;20077;-51
2023/03/20 01:53:33;;;;;;;;;;;21.00;44.80;;;;;;6157100;29;19933;-52
2023/03/20 01:56:37;;;;;;;;;;;20.90;44.80;;;;;;6158124;29;20025;-50
2023/03/20 01:59:41;;;;;;;;;;;20.90;44.60;;;;;;6158378;29;19947;-52
2023/03/20 02:02:44;;;;;;;;;;;20.90;44.60;;;;;;6158515;29;19925;-52
2023/03/20 02:05:48;;;;;;;;;;;21.60;45.10;;;;;;6157309;29;19923;-51
2023/03/20 02:08:53;;;;;;;;;;;21.00;44.90;;;;;;6131704;29;19934;-51
2023/03/20 02:11:55;;;;;;;;;;;21.00;44.80;;;;;;6130677;29;20454;-51
2023/03/20 02:14:57;;;;;;;;;;;21.40;44.90;;;;;;6131723;29;20009;-49
2023/03/20 02:18:14;;;;;;;;;;;20.90;44.80;;;;;;6131923;29;20383;-50
2023/03/20 02:21:31;;;;;;;;;;;21.00;44.90;;;;;;6131841;29;19923;-52
2023/03/20 02:24:49;;;;;;;;;;;21.20;44.80;;;;;;6131548;29;20446;-52
2023/03/20 02:28:03;;;;;;;;;;;21.10;44.80;;;;;;6131735;29;20331;-47
2023/03/20 02:31:21;;;;;;;;;;;20.90;44.70;;;;;;6131514;29;19924;-52
2023/03/20 02:34:34;;;;;;;;;;;21.10;44.80;;;;;;6131789;29;19927;-50
2023/03/20 02:37:45;;;;;;;;;;;21.30;44.80;;;;;;6131689;29;19923;-52
2023/03/20 02:40:53;;;;;;;;;;;21.10;44.70;;;;;;6131479;29;19929;-48
2023/03/20 02:43:59;;;;;;;;;;;20.80;44.60;;;;;;6131316;28;19926;-53
2023/03/20 02:47:05;;;;;;;;;;;21.30;45.00;;;;;;6131075;29;19923;-50
2023/03/20 02:50:15;;;;;;;;;;;21.10;44.80;;;;;;6131337;28;19922;-50
2023/03/20 02:53:24;;;;;;;;;;;20.70;44.60;;;;;;6130850;29;20018;-52
2023/03/20 02:56:30;;;;;;;;;;;20.80;44.60;;;;;;6131129;28;19996;-51
2023/03/20 02:59:34;;;;;;;;;;;20.90;44.60;;;;;;6130563;29;19923;-52
2023/03/20 03:02:37;;;;;;;;;;;20.90;44.70;;;;;;6129678;29;19923;-50
2023/03/20 03:05:42;;;;;;;;;;;20.90;44.60;;;;;;6130796;29;19990;-49
2023/03/20 03:08:47;;;;;;;;;;;21.50;45.00;;;;;;6130114;28;19923;-49
2023/03/20 03:11:50;;;;;;;;;;;21.20;44.80;;;;;;6130448;29;19922;-51
2023/03/20 03:14:53;;;;;;;;;;;20.70;44.60;;;;;;6130443;28;20382;-47
2023/03/20 03:17:57;;;;;;;;;;;20.90;44.70;;;;;;6130099;29;20402;-50
2023/03/20 03:20:59;;;;;;;;;;;20.80;44.70;;;;;;6130282;29;19970;-49
2023/03/20 03:24:03;;;;;;;;;;;20.90;44.70;;;;;;6130385;29;19927;-50
2023/03/20 03:27:09;;;;;;;;;;;21.00;44.80;;;;;;6129144;29;20327;-50
2023/03/20 03:30:15;;;;;;;;;;;21.30;42.80;;;;;;6131406;29;19974;-51
2023/03/20 03:33:20;;;;;;;;;;;20.80;44.70;;;;;;6131100;29;20017;-49
2023/03/20 03:36:29;;;;;;;;;;;20.80;44.70;;;;;;6130465;29;19932;-49
2023/03/20 03:39:36;;;;;;;;;;;21.10;44.70;;;;;;6132080;29;19930;-51
2023/03/20 03:42:40;;;;;;;;;;;21.00;44.80;;;;;;6131306;29;20291;-50
2023/03/20 03:45:45;;;;;;;;;;;20.90;44.70;;;;;;6132135;29;19946;-52
2023/03/20 03:48:48;;;;;;;;;;;20.90;44.70;;;;;;6131327;29;20295;-51
2023/03/20 03:51:53;;;;;;;;;;;21.10;44.80;;;;;;6131464;29;19945;-50
2023/03/20 03:54:58;;;;;;;;;;;20.90;44.70;;;;;;6130986;29;19922;-52
2023/03/20 04:02:55;;;;;;;;;;;21.30;42.80;;;;;;6130383;29;19974;-49
2023/03/20 04:05:57;;;;;;;;;;;20.90;44.80;;;;;;6131929;29;19973;-48
2023/03/20 04:09:00;;;;;;;;;;;20.90;44.80;;;;;;6131000;29;20046;-52
2023/03/20 04:12:02;;;;;;;;;;;21.00;44.90;;;;;;6132139;29;19923;-50
2023/03/20 04:15:04;;;;;;;;;;;21.10;45.00;;;;;;6128665;28;19923;-50
2023/03/20 04:18:08;;;;;;;;;;;20.90;44.80;;;;;;6129744;29;19922;-52
2023/03/20 04:21:14;;;;;;;;;;;20.70;44.60;;;;;;6139624;29;20025;-51
2023/03/20 04:24:17;;;;;;;;;;;21.10;50.60;;;;;;6145834;29;19954;-53
2023/03/20 04:27:21;;;;;;;;;;;20.80;50.10;;;;;;6146640;29;19923;-52
2023/03/20 04:30:23;;;;;;;;;;;21.10;50.20;;;;;;6144608;29;19927;-51
2023/03/20 04:33:35;;;;;;;;;;;21.10;50.20;;;;;;6131937;29;19938;-47
2023/03/20 04:36:47;;;;;;;;;;;20.70;50.20;;;;;;6130047;29;20392;-49
2023/03/20 04:39:52;;;;;;;;;;;20.80;50.50;;;;;;6129367;29;19926;-45
2023/03/20 04:42:54;;;;;;;;;;;20.80;50.40;;;;;;6128561;29;20328;-50
2023/03/20 04:45:56;;;;;;;;;;;21.10;50.30;;;;;;6127558;29;19974;-50
2023/03/20 04:48:57;;;;;;;;;;;21.00;50.40;;;;;;6127566;29;19974;-49
2023/03/20 04:52:02;;;;;;;;;;;20.80;50.30;;;;;;6126954;29;20378;-48
2023/03/20 04:55:11;;;;;;;;;;;20.90;50.40;;;;;;6126908;29;19922;-45
2023/03/20 04:58:12;;;;;;;;;;;20.80;50.30;;;;;;6127399;28;20418;-50
2023/03/20 05:01:14;;;;;;;;;;;21.00;50.40;;;;;;6126835;29;19922;-45
2023/03/20 05:04:16;;;;;;;;;;;20.70;50.30;;;;;;6126849;29;19929;-48
2023/03/20 05:07:17;;;;;;;;;;;21.10;50.40;;;;;;6127134;29;19923;-46
2023/03/20 05:10:33;;;;;;;;;;;21.10;50.50;;;;;;6126792;29;20307;-47
2023/03/20 05:13:49;;;;;;;;;;;20.80;50.40;;;;;;6126439;29;20286;-48
2023/03/20 05:17:00;;;;;;;;;;;21.10;50.60;;;;;;6126591;29;19923;-48
2023/03/20 05:20:15;;;;;;;;;;;20.70;50.50;;;;;;6126848;29;20284;-48
2023/03/20 05:23:27;;;;;;;;;;;21.20;50.70;;;;;;6126839;29;19961;-47
2023/03/20 05:26:46;;;;;;;;;;;20.80;50.50;;;;;;6126461;29;19923;-45
2023/03/20 05:30:06;;;;;;;;;;;20.80;50.50;;;;;;6127138;29;19922;-46
2023/03/20 05:33:23;;;;;;;;;;;21.10;50.60;;;;;;6126301;29;20272;-47
2023/03/20 05:36:41;;;;;;;;;;;21.00;50.60;;;;;;6126695;29;19969;-45
2023/03/20 05:40:00;;;;;;;;;;;20.90;50.30;;;;;;6126413;29;20402;-48
2023/03/20 05:43:10;;;;;;;;;;;21.30;50.80;;;;;;6126256;29;19950;-49
2023/03/20 05:46:32;;;;;;;;;;;20.70;50.60;;;;;;6125971;29;19923;-48
2023/03/20 05:49:45;;;;;;;;;;;20.70;50.60;;;;;;6126544;29;20299;-47
2023/03/20 05:52:56;;;;;;;;;;;20.70;50.30;;;;;;6129872;29;19990;-50
2023/03/20 05:56:17;;;;;;;;;;;21.30;50.80;;;;;;6130261;28;19930;-45
2023/03/20 05:59:25;;;;;;;;;;;20.70;50.60;;;;;;6130103;29;19938;-47
2023/03/20 06:02:46;;;;;;;;;;;20.60;50.50;;;;;;6129939;29;19930;-45
2023/03/20 06:06:05;;;;;;;;;;;20.80;50.60;;;;;;6130153;29;19922;-50
2023/03/20 06:09:07;;;;;;;;;;;20.80;50.60;;;;;;6130408;29;19929;-50
2023/03/20 06:12:10;;;;;;;;;;;20.80;50.50;;;;;;6129316;29;19922;-47
2023/03/20 06:15:12;;;;;;;;;;;21.30;50.80;;;;;;6129907;29;19923;-46
2023/03/20 06:18:20;;;;;;;;;;;20.60;50.60;;;;;;6129705;29;19923;-47
2023/03/20 06:21:22;;;;;;;;;;;21.30;50.80;;;;;;6130069;29;19923;-48
2023/03/20 06:24:24;;;;;;;;;;;20.70;50.30;;;;;;6130075;29;19926;-47
2023/03/20 06:27:26;;;;;;;;;;;21.10;50.70;;;;;;6129901;29;19981;-48
2023/03/20 06:30:27;;;;;;;;;;;20.60;50.60;;;;;;6129816;29;19922;-49
2023/03/20 06:33:29;;;;;;;;;;;20.50;50.60;;;;;;6129833;29;20388;-46
2023/03/20 06:36:34;;;;;;;;;;;20.60;50.60;;;;;;6129644;29;19973;-48
2023/03/20 06:39:42;;;;;;;;;;;20.70;50.60;;;;;;6129668;28;19923;-49
2023/03/20 06:42:47;;;;;;;;;;;20.60;50.60;;;;;;6129365;29;19929;-46
2023/03/20 06:45:50;;;;;;;;;;;21.30;51.00;;;;;;6128823;29;19995;-47
2023/03/20 06:48:56;;;;;;;;;;;20.70;50.80;;;;;;6129101;29;19923;-45
2023/03/20 06:51:58;;;;;;;;;;;21.00;50.90;;;;;;6128964;29;20401;-49
2023/03/20 06:55:00;;;;;;;;;;;20.90;50.60;;;;;;6128978;29;19962;-45
2023/03/20 06:58:01;;;;;;;;;;;21.00;50.70;;;;;;6127229;29;19930;-46
2023/03/20 07:01:07;;;;;;;;;;;20.70;50.80;;;;;;6129010;29;19986;-46
2023/03/20 07:04:10;;;;;;;;;;;20.70;50.60;;;;;;6129548;29;19923;-48
2023/03/20 07:07:18;;;;;;;;;;;20.70;50.70;;;;;;6128684;29;20384;-50
2023/03/20 07:10:20;;;;;;;;;;;21.10;51.00;;;;;;6128594;29;20392;-45
2023/03/20 07:13:27;;;;;;;;;;;20.60;50.40;;;;;;6128188;29;19930;-47
2023/03/20 07:16:30;;;;;;;;;;;20.80;50.60;;;;;;6126850;29;19922;-47
2023/03/20 07:19:32;;;;;;;;;;;20.60;50.10;;;;;;6128098;29;19927;-46
2023/03/20 07:22:36;;;;;;;;;;;21.10;50.70;;;;;;6128421;29;19923;-45
2023/03/20 07:25:57;;;;;;;;;;;20.60;50.10;;;;;;6128240;29;20010;-50
2023/03/20 07:28:59;;;;;;;;;;;20.60;50.40;;;;;;6128900;29;20013;-46
2023/03/20 07:32:01;;;;;;;;;;;20.60;50.20;;;;;;6128807;29;19923;-48
2023/03/20 07:35:08;;;;;;;;;;;21.10;50.60;;;;;;6129229;29;20418;-51
2023/03/20 07:38:10;;;;;;;;;;;20.70;50.40;;;;;;6128516;29;20018;-45
2023/03/20 07:41:22;;;;;;;;;;;21.20;50.60;;;;;;6128292;28;19923;-50
2023/03/20 07:44:33;;;;;;;;;;;20.70;50.10;;;;;;6129439;29;19931;-51
2023/03/20 07:47:38;;;;;;;;;;;21.20;50.70;;;;;;6128802;29;19922;-47
2023/03/20 07:50:40;;;;;;;;;;;20.90;50.30;;;;;;6127675;29;19922;-47
2023/03/20 07:53:42;;;;;;;;;;;21.30;50.40;;;;;;6128594;28;19929;-47
2023/03/20 07:56:47;;;;;;;;;;;21.00;50.20;;;;;;6128271;29;19929;-48
2023/03/20 07:59:48;;;;;;;;;;;21.30;50.50;;;;;;6129557;28;20347;-46
2023/03/20 08:02:49;;;;;;;;;;;20.70;50.10;;;;;;6128557;29;19930;-45
2023/03/20 08:05:52;;;;;;;;;;;21.10;50.50;;;;;;6128718;28;20021;-50
2023/03/20 08:08:54;;;;;;;;;;;21.10;50.50;;;;;;6128283;29;19934;-51
2023/03/20 08:11:56;;;;;;;;;;;21.20;50.90;;;;;;6127128;29;19930;-51
2023/03/20 08:14:58;;;;;;;;;;;20.90;50.40;;;;;;6126172;29;19927;-51
2023/03/20 08:18:00;;;;;;;;;;;21.10;50.60;;;;;;6127033;29;19973;-51
2023/03/20 08:21:02;;;;;;;;;;;20.70;50.00;;;;;;6127043;29;19930;-51
2023/03/20 08:24:03;;;;;;;;;;;20.90;49.80;;;;;;6126697;29;19927;-50
2023/03/20 08:27:05;;;;;;;;;;;20.90;49.90;;;;;;6126185;29;19922;-53
2023/03/20 08:30:07;;;;;;;;;;;21.40;50.30;;;;;;6127030;29;19930;-49
2023/03/20 08:33:09;;;;;;;;;;;21.40;49.80;;;;;;6125727;29;20375;-50
2023/03/20 08:36:13;;;;;;;;;;;21.50;49.80;;;;;;6125415;29;19930;-48
2023/03/20 08:39:17;;;;;;;;;;;21.20;50.10;;;;;;6126782;29;19923;-48
2023/03/20 08:42:18;;;;;;;;;;;21.50;47.40;;;;;;6126660;29;19923;-54
2023/03/20 08:45:20;;;;;;;;;;;21.20;49.80;;;;;;6126401;29;19922;-46
2023/03/20 08:48:21;;;;;;;;;;;21.50;49.90;;;;;;6126282;29;20410;-48
2023/03/20 08:51:24;;;;;;;;;;;21.60;50.10;;;;;;6126571;29;20392;-52
2023/03/20 08:54:25;;;;;;;;;;;21.50;50.00;;;;;;6126182;29;19923;-51
2023/03/20 08:57:26;;;;;;;;;;;21.10;49.60;;;;;;6126044;29;19922;-52
2023/03/20 09:00:28;;;;;;;;;;;21.60;50.10;;;;;;6126244;29;19922;-52
2023/03/20 09:03:30;;;;;;;;;;;21.40;49.70;;;;;;6126178;29;19981;-52
2023/03/20 09:06:34;;;;;;;;;;;21.60;49.70;;;;;;6126488;29;20310;-52
2023/03/20 09:09:36;;;;;;;;;;;21.30;49.70;;;;;;6126695;29;19942;-53
2023/03/20 09:12:37;;;;;;;;;;;21.80;50.00;;;;;;6125977;29;19996;-50
2023/03/20 09:15:39;;;;;;;;;;;21.40;49.40;;;;;;6125795;29;19970;-51
2023/03/20 09:18:41;;;;;;;;;;;21.70;49.80;;;;;;6126129;29;19930;-52
2023/03/20 09:21:43;;;;;;;;;;;21.70;49.60;;;;;;6126033;29;19922;-52
2023/03/20 09:24:44;;;;;;;;;;;21.50;49.50;;;;;;6128046;29;20295;-51
2023/03/20 09:27:46;;;;;;;;;;;21.30;49.30;;;;;;6130174;29;19923;-53
2023/03/20 09:30:47;;;;;;;;;;;21.70;49.70;;;;;;6130337;28;20009;-52
2023/03/20 09:33:50;;;;;;;;;;;21.60;49.50;;;;;;6129918;29;19923;-49
2023/03/20 09:36:51;;;;;;;;;;;22.00;49.00;;;;;;6129758;28;19949;-53
2023/03/20 09:39:53;;;;;;;;;;;21.60;49.50;;;;;;6129762;29;19927;-52
2023/03/20 09:42:59;;;;;;;;;;;22.00;49.50;;;;;;6128388;29;20009;-52
2023/03/20 09:46:07;;;;;;;;;;;21.50;49.20;;;;;;6129926;29;19923;-52
2023/03/20 09:49:13;;;;;;;;;;;22.10;49.50;;;;;;6129698;29;19930;-51
2023/03/20 09:52:25;;;;;;;;;;;22.00;49.40;;;;;;6128752;29;19923;-48
2023/03/20 09:55:30;;;;;;;;;;;22.00;49.10;;;;;;6127699;29;19930;-50
2023/03/20 09:58:33;;;;;;;;;;;21.70;49.10;;;;;;6129368;29;19930;-50
2023/03/20 10:01:39;;;;;;;;;;;22.00;49.20;;;;;;6128343;29;19923;-53
2023/03/20 10:04:42;;;;;;;;;;;21.80;49.20;;;;;;6129479;29;19923;-49
2023/03/20 10:07:46;;;;;;;;;;;22.10;49.30;;;;;;6129269;29;19922;-50
2023/03/20 10:10:51;;;;;;;;;;;22.20;49.30;;;;;;6129444;29;20288;-53
2023/03/20 10:13:59;;;;;;;;;;;22.20;49.30;;;;;;6128801;28;19960;-54
2023/03/20 10:17:06;;;;;;;;;;;22.00;49.20;;;;;;6129227;29;19922;-51
2023/03/20 10:20:13;;;;;;;;;;;22.20;49.10;;;;;;6128823;29;19978;-52
2023/03/20 10:23:19;;;;;;;;;;;22.00;49.10;;;;;;6128515;29;19922;-52
2023/03/20 10:26:21;;;;;;;;;;;22.30;49.20;;;;;;6129429;29;20347;-54
2023/03/20 10:29:30;;;;;;;;;;;22.00;49.00;;;;;;6129494;29;19922;-53
2023/03/20 10:32:35;;;;;;;;;;;22.30;48.90;;;;;;6128547;28;19922;-54
2023/03/20 10:35:38;;;;;;;;;;;21.90;49.00;;;;;;6128302;29;20034;-54
2023/03/20 10:38:44;;;;;;;;;;;22.40;49.10;;;;;;6127931;29;20268;-54
2023/03/20 10:41:48;;;;;;;;;;;22.00;48.90;;;;;;6129409;29;19926;-54
2023/03/20 10:44:53;;;;;;;;;;;22.20;48.80;;;;;;6128678;28;19923;-53
2023/03/20 10:47:55;;;;;;;;;;;22.10;48.60;;;;;;6128702;29;20029;-51
2023/03/20 10:50:58;;;;;;;;;;;22.80;49.00;;;;;;6128034;29;19923;-50
2023/03/20 10:54:02;;;;;;;;;;;22.20;48.70;;;;;;6127248;29;19923;-52
2023/03/20 10:57:06;;;;;;;;;;;23.30;50.60;;;;;;6127385;29;20001;-53
2023/03/20 11:00:13;;;;;;;;;;;22.00;48.70;;;;;;6127609;29;19923;-53
2023/03/20 11:03:19;;;;;;;;;;;22.40;48.90;;;;;;6128606;29;20025;-53
2023/03/20 11:06:23;;;;;;;;;;;22.20;48.80;;;;;;6128327;29;19930;-51
2023/03/20 11:09:28;;;;;;;;;;;22.40;48.90;;;;;;6128305;29;19923;-51
2023/03/20 11:12:31;;;;;;;;;;;22.00;48.90;;;;;;6127927;29;20335;-48
2023/03/20 11:15:33;;;;;;;;;;;22.40;48.80;;;;;;6128548;29;20394;-53
2023/03/20 11:18:34;;;;;;;;;;;22.10;48.90;;;;;;6128658;29;19927;-47
2023/03/20 11:21:43;;;;;;;;;;;22.30;49.40;;;;;;6134323;29;19929;-44
2023/03/20 11:24:46;;;;;;;;;;;22.00;49.10;;;;;;6138685;29;19922;-45
2023/03/20 11:27:47;;;;;;;;;;;22.70;49.20;;;;;;6139499;29;19930;-46
2023/03/20 11:30:50;;;;;;;;;;;22.20;49.00;;;;;;6141324;29;19926;-43
2023/03/20 11:34:10;;;;;;;;;;;22.70;49.60;;;;;;6141031;29;19923;-48
2023/03/20 11:37:22;;;;;;;;;;;22.20;48.90;;;;;;6138986;29;19930;-42
2023/03/20 11:40:24;;;;;;;;;;;22.60;48.90;;;;;;6139295;28;19922;-44
2023/03/20 11:43:27;;;;;;;;;;;22.10;49.10;;;;;;6138007;29;20009;-43
2023/03/20 11:46:29;;;;;;;;;;;22.40;49.10;;;;;;6150422;29;19923;-44
2023/03/20 11:49:31;;;;;;;;;;;22.00;48.70;;;;;;6133448;29;19930;-44
2023/03/20 11:52:33;;;;;;;;;;;22.00;49.00;;;;;;6133436;29;19992;-45
2023/03/20 11:55:35;;;;;;;;;;;22.00;49.00;;;;;;6133404;29;19922;-43
2023/03/20 11:58:39;;;;;;;;;;;22.40;49.00;;;;;;6133940;29;19923;-46
2023/03/20 12:01:45;;;;;;;;;;;22.10;48.90;;;;;;6133024;29;19922;-44
2023/03/20 12:04:47;;;;;;;;;;;22.50;49.10;;;;;;6131472;29;20009;-44
2023/03/20 12:07:50;;;;;;;;;;;22.20;48.90;;;;;;6132746;29;19922;-47
2023/03/20 12:10:54;;;;;;;;;;;22.50;49.20;;;;;;6131808;29;20018;-44
2023/03/20 12:13:59;;;;;;;;;;;22.10;48.80;;;;;;6131125;29;20390;-43
2023/03/20 12:17:07;;;;;;;;;;;22.40;48.60;;;;;;6131223;29;20295;-43
2023/03/20 12:20:16;;;;;;;;;;;22.20;48.80;;;;;;6132227;29;20379;-45
2023/03/20 12:23:21;;;;;;;;;;;22.70;48.70;;;;;;6133088;29;19923;-44
2023/03/20 12:26:29;;;;;;;;;;;22.50;48.80;;;;;;6133113;29;20272;-44
2023/03/20 12:29:34;;;;;;;;;;;22.70;49.00;;;;;;6136759;29;19930;-45
2023/03/20 12:32:39;;;;;;;;;;;22.40;48.70;;;;;;6135807;29;20450;-47
2023/03/20 12:35:41;;;;;;;;;;;23.00;49.20;;;;;;6131270;29;19970;-46
2023/03/20 12:38:43;;;;;;;;;;;22.70;48.80;;;;;;6128333;29;20336;-48
2023/03/20 12:41:54;;;;;;;;;;;22.90;48.80;;;;;;6127988;29;20367;-48
2023/03/20 12:44:57;;;;;;;;;;;22.60;48.50;;;;;;6128360;29;19939;-49
2023/03/20 12:48:04;;;;;;;;;;;23.10;48.70;;;;;;6132285;29;19922;-48
2023/03/20 12:51:08;;;;;;;;;;;22.70;48.60;;;;;;6134301;29;19923;-46
2023/03/20 12:54:15;;;;;;;;;;;23.10;48.70;;;;;;6130875;29;19923;-46
2023/03/20 12:57:21;;;;;;;;;;;22.80;48.40;;;;;;6127353;29;19922;-44
2023/03/20 13:00:26;;;;;;;;;;;22.90;48.30;;;;;;6133599;29;19923;-44
2023/03/20 13:03:33;;;;;;;;;;;22.70;48.30;;;;;;6132845;29;19995;-50
2023/03/20 13:06:40;;;;;;;;;;;23.00;47.70;;;;;;6129615;29;19978;-46
2023/03/20 13:09:56;;;;;;;;;;;22.60;48.10;;;;;;6131498;29;19937;-43
2023/03/20 13:13:09;;;;;;;;;;;23.00;48.10;;;;;;6131586;29;20291;-47
2023/03/20 13:16:16;;;;;;;;;;;22.90;48.00;;;;;;6132233;29;19923;-49
2023/03/20 13:19:24;;;;;;;;;;;22.80;47.90;;;;;;6131179;29;19929;-46
2023/03/20 13:22:30;;;;;;;;;;;22.60;47.80;;;;;;6131115;29;20434;-44
2023/03/20 13:25:38;;;;;;;;;;;23.30;48.00;;;;;;6131659;29;20378;-44
2023/03/20 13:28:46;;;;;;;;;;;22.80;47.70;;;;;;6132261;29;19930;-45
2023/03/20 13:31:52;;;;;;;;;;;23.30;48.20;;;;;;6130936;28;19929;-46
2023/03/20 13:35:08;;;;;;;;;;;23.10;48.00;;;;;;6130629;29;19926;-47
2023/03/20 13:38:13;;;;;;;;;;;23.50;48.10;;;;;;6130466;28;19927;-48
2023/03/20 13:41:17;;;;;;;;;;;22.80;47.60;;;;;;6131409;29;19990;-43
2023/03/20 13:44:22;;;;;;;;;;;23.40;48.00;;;;;;6132993;28;19923;-51
2023/03/20 13:47:25;;;;;;;;;;;23.20;47.80;;;;;;6132540;29;19974;-48
2023/03/20 13:50:33;;;;;;;;;;;23.30;47.80;;;;;;6131790;29;19923;-47
2023/03/20 13:53:39;;;;;;;;;;;23.10;47.70;;;;;;6132409;29;19926;-47
2023/03/20 13:56:47;;;;;;;;;;;23.30;47.80;;;;;;6134878;28;19923;-48
2023/03/20 13:59:54;;;;;;;;;;;23.10;47.80;;;;;;6133141;29;19930;-49
2023/03/20 14:03:06;;;;;;;;;;;23.50;47.90;;;;;;6131749;29;19922;-46
2023/03/20 14:06:15;;;;;;;;;;;22.80;47.50;;;;;;6132861;28;19923;-49
2023/03/20 14:09:24;;;;;;;;;;;23.60;48.10;;;;;;6133419;29;19923;-49
2023/03/20 14:12:27;;;;;;;;;;;22.70;47.60;;;;;;6129933;29;19977;-48
2023/03/20 14:15:32;;;;;;;;;;;23.30;47.70;;;;;;6133533;29;20306;-46
2023/03/20 14:18:33;;;;;;;;;;;22.90;47.60;;;;;;6132532;29;19922;-51
2023/03/20 14:21:35;;;;;;;;;;;23.50;48.10;;;;;;6136144;29;19922;-48
2023/03/20 14:24:39;;;;;;;;;;;23.20;47.90;;;;;;6133017;29;19930;-50
2023/03/20 14:27:53;;;;;;;;;;;23.30;47.90;;;;;;6132672;28;19969;-48
2023/03/20 14:31:09;;;;;;;;;;;22.90;47.60;;;;;;6132140;29;19978;-45
2023/03/20 14:34:15;;;;;;;;;;;23.30;47.90;;;;;;6129734;29;19962;-51
2023/03/20 14:37:31;;;;;;;;;;;22.80;47.70;;;;;;6130192;29;19922;-47
2023/03/20 14:40:35;;;;;;;;;;;23.20;47.60;;;;;;6130023;29;19926;-46
2023/03/20 14:43:41;;;;;;;;;;;22.90;47.70;;;;;;6130432;29;19923;-51
2023/03/20 14:46:50;;;;;;;;;;;23.20;47.60;;;;;;6133007;29;19930;-46
2023/03/20 14:49:54;;;;;;;;;;;22.90;47.50;;;;;;6130648;29;19927;-48
2023/03/20 14:53:02;;;;;;;;;;;23.20;47.80;;;;;;6130922;29;19923;-48
2023/03/20 14:56:06;;;;;;;;;;;23.50;48.00;;;;;;6132053;29;19927;-45
2023/03/20 14:59:09;;;;;;;;;;;23.30;47.80;;;;;;6131808;29;19922;-45
2023/03/20 15:02:23;;;;;;;;;;;22.90;47.50;;;;;;6129885;29;19953;-46
2023/03/20 15:05:28;;;;;;;;;;;23.20;47.60;;;;;;6130267;29;20375;-44
2023/03/20 15:08:30;;;;;;;;;;;23.20;47.70;;;;;;6128959;29;19922;-44
2023/03/20 15:11:32;;;;;;;;;;;23.50;47.20;;;;;;6128414;29;19977;-46
2023/03/20 15:14:38;;;;;;;;;;;23.30;47.50;;;;;;6128734;29;19923;-45
2023/03/20 15:17:43;;;;;;;;;;;23.50;47.60;;;;;;6130635;29;19957;-43
2023/03/20 15:20:45;;;;;;;;;;;23.30;47.70;;;;;;6129682;28;19926;-46
2023/03/20 15:23:46;;;;;;;;;;;23.40;46.20;;;;;;6130308;29;19922;-45
2023/03/20 15:26:51;;;;;;;;;;;23.30;47.70;;;;;;6130279;29;19927;-44
2023/03/20 15:29:54;;;;;;;;;;;23.50;48.00;;;;;;6131591;29;19923;-47
2023/03/20 15:32:55;;;;;;;;;;;23.20;47.60;;;;;;6130528;29;19923;-46
2023/03/20 15:36:05;;;;;;;;;;;23.40;47.90;;;;;;6135148;29;20017;-47
2023/03/20 15:39:12;;;;;;;;;;;23.30;47.90;;;;;;6132613;29;19930;-47
2023/03/20 15:42:15;;;;;;;;;;;23.40;47.50;;;;;;6131487;29;19927;-49
2023/03/20 15:45:21;;;;;;;;;;;23.30;47.70;;;;;;6131717;29;19929;-50
2023/03/20 15:48:22;;;;;;;;;;;23.60;47.90;;;;;;6133868;29;19958;-53
2023/03/20 15:51:25;;;;;;;;;;;23.30;47.50;;;;;;6137921;29;19950;-51
2023/03/20 15:54:27;;;;;;;;;;;23.60;48.00;;;;;;6136850;29;20018;-51
2023/03/20 15:57:30;;;;;;;;;;;23.40;48.00;;;;;;6130835;29;19923;-49
2023/03/20 16:00:33;;;;;;;;;;;23.60;47.70;;;;;;6129531;29;19929;-49
2023/03/20 16:03:37;;;;;;;;;;;23.50;47.60;;;;;;6127010;29;20026;-51
2023/03/20 16:06:45;;;;;;;;;;;23.70;47.60;;;;;;6126236;29;20351;-52
2023/03/20 16:09:48;;;;;;;;;;;23.50;47.50;;;;;;6127549;29;20386;-54
2023/03/20 16:12:53;;;;;;;;;;;23.60;47.30;;;;;;6125919;29;19923;-55
2023/03/20 16:15:54;;;;;;;;;;;23.50;47.40;;;;;;6127200;29;19962;-53
2023/03/20 16:18:56;;;;;;;;;;;23.80;47.60;;;;;;6127088;29;19922;-51
2023/03/20 16:22:03;;;;;;;;;;;23.30;47.20;;;;;;6129611;29;19923;-53
2023/03/20 16:25:04;;;;;;;;;;;23.70;47.60;;;;;;6126984;29;19927;-51
2023/03/20 16:28:06;;;;;;;;;;;23.30;47.20;;;;;;6131442;29;19923;-49
2023/03/20 16:31:08;;;;;;;;;;;23.80;47.50;;;;;;6128268;29;19945;-48
2023/03/20 16:34:16;;;;;;;;;;;23.40;47.10;;;;;;6126534;28;19939;-53
2023/03/20 16:37:24;;;;;;;;;;;23.60;47.10;;;;;;6127186;29;19923;-50
2023/03/20 16:40:31;;;;;;;;;;;23.40;47.00;;;;;;6128708;28;19995;-50
2023/03/20 16:43:37;;;;;;;;;;;23.80;47.30;;;;;;6127926;28;19954;-52
2023/03/20 16:46:52;;;;;;;;;;;23.60;47.30;;;;;;6127119;29;20375;-56
2023/03/20 16:50:05;;;;;;;;;;;23.90;46.70;;;;;;6128303;29;19922;-51
2023/03/20 16:53:09;;;;;;;;;;;23.40;47.00;;;;;;6130005;29;20272;-52
2023/03/20 16:56:12;;;;;;;;;;;23.70;47.00;;;;;;6126478;29;19923;-48
2023/03/20 16:59:16;;;;;;;;;;;23.50;46.90;;;;;;6126689;29;20343;-50
2023/03/20 17:02:21;;;;;;;;;;;23.90;47.00;;;;;;6125743;29;19930;-51
2023/03/20 17:05:32;;;;;;;;;;;23.40;46.90;;;;;;6126421;29;19923;-52
2023/03/20 17:08:40;;;;;;;;;;;23.90;47.30;;;;;;6125303;29;20013;-52
2023/03/20 17:11:44;;;;;;;;;;;23.70;47.10;;;;;;6125374;29;19923;-51
2023/03/20 17:14:49;;;;;;;;;;;23.90;47.20;;;;;;6127251;29;19930;-51
2023/03/20 17:17:50;;;;;;;;;;;23.80;47.30;;;;;;6127032;29;20420;-51
2023/03/20 17:20:52;;;;;;;;;;;23.90;47.60;;;;;;6140991;29;19922;-50
2023/03/20 17:23:54;;;;;;;;;;;23.60;47.00;;;;;;6127648;29;20009;-51
2023/03/20 17:26:57;;;;;;;;;;;23.90;47.40;;;;;;6127192;29;19994;-50
2023/03/20 17:29:59;;;;;;;;;;;23.50;47.10;;;;;;6127542;29;19922;-51
2023/03/20 17:33:00;;;;;;;;;;;23.70;47.30;;;;;;6127810;29;19923;-51
2023/03/20 17:36:02;;;;;;;;;;;23.50;47.10;;;;;;6130032;29;19958;-50
2023/03/20 17:39:04;;;;;;;;;;;24.00;47.30;;;;;;6129663;29;19923;-49
2023/03/20 17:42:08;;;;;;;;;;;23.40;47.10;;;;;;6138350;29;20315;-52
2023/03/20 17:45:11;;;;;;;;;;;23.90;47.20;;;;;;6138160;29;20422;-50
2023/03/20 17:48:14;;;;;;;;;;;23.50;47.20;;;;;;6141690;29;20082;-52
2023/03/20 17:51:16;;;;;;;;;;;24.00;47.30;;;;;;6141973;28;19923;-51
2023/03/20 17:54:18;;;;;;;;;;;23.60;47.00;;;;;;6141178;29;19930;-51
2023/03/20 17:57:20;;;;;;;;;;;24.00;47.40;;;;;;6140412;28;19922;-50
2023/03/20 18:00:24;;;;;;;;;;;23.70;47.20;;;;;;6140368;29;20017;-51